createdAt,value
2018-03-20T00:02:15.911Z,29.08
2018-03-20T00:04:43.499Z,27.80
2018-03-20T00:07:11.860Z,26.05
2018-03-20T00:09:40.244Z,26.85
2018-03-20T00:12:07.856Z,26.60
2018-03-20T00:14:35.423Z,27.05
2018-03-20T00:17:03.000Z,26.98
2018-03-20T00:19:31.349Z,27.67
2018-03-20T00:21:58.930Z,26.25
2018-03-20T00:24:26.522Z,26.17
2018-03-20T00:26:54.071Z,28.15
2018-03-20T00:29:22.436Z,29.15
2018-03-20T00:31:50.016Z,31.08
2018-03-20T00:34:18.344Z,30.62
2018-03-20T00:36:45.925Z,31.45
2018-03-20T00:39:13.531Z,31.02
2018-03-20T00:41:41.915Z,33.70
2018-03-20T00:44:10.497Z,32.58
2018-03-20T00:46:38.121Z,35.95
2018-03-20T00:49:06.442Z,35.08
2018-03-20T00:51:34.004Z,34.58
2018-03-20T00:54:01.678Z,27.65
2018-03-20T00:56:29.989Z,31.85
2018-03-20T00:58:58.315Z,29.63
2018-03-20T01:01:26.701Z,29.17
2018-03-20T01:03:55.772Z,28.48
2018-03-20T01:06:23.337Z,30.33
2018-03-20T01:08:51.812Z,31.23
2018-03-20T01:11:19.414Z,31.95
2018-03-20T01:13:47.769Z,33.63
2018-03-20T01:16:16.093Z,33.03
2018-03-20T01:18:43.703Z,33.55
2018-03-20T01:21:12.648Z,31.73
2018-03-20T01:23:41.073Z,33.33
2018-03-20T01:26:09.373Z,34.17
2018-03-20T01:28:36.951Z,33.40
2018-03-20T01:31:05.487Z,31.83
2018-03-20T01:33:33.153Z,35.05
2018-03-20T01:36:00.701Z,31.23
2018-03-20T01:38:29.057Z,32.95
2018-03-20T01:40:56.635Z,32.33
2018-03-20T01:43:24.205Z,35.72
2018-03-20T01:45:51.771Z,32.80
2018-03-20T01:48:20.941Z,29.85
2018-03-20T01:50:48.515Z,31.70
2018-03-20T01:53:19.063Z,31.52
2018-03-20T01:55:47.387Z,29.70
2018-03-20T01:58:14.954Z,29.40
2018-03-20T02:00:43.365Z,28.60
2018-03-20T02:03:12.790Z,24.77
2018-03-20T02:05:41.229Z,26.85
2018-03-20T02:08:09.333Z,26.70
2018-03-20T02:10:37.683Z,27.60
2018-03-20T02:13:05.339Z,26.15
2018-03-20T02:15:33.771Z,24.42
2018-03-20T02:18:01.293Z,25.80
2018-03-20T02:20:29.657Z,24.87
2018-03-20T02:22:57.286Z,24.02
2018-03-20T02:25:24.964Z,23.95
2018-03-20T02:27:52.512Z,23.52
2018-03-20T02:30:21.847Z,25.67
2018-03-20T02:32:49.503Z,23.80
2018-03-20T02:35:17.838Z,24.65
2018-03-20T02:37:46.214Z,26.27
2018-03-20T02:40:13.776Z,24.40
2018-03-20T02:42:41.722Z,26.30
2018-03-20T02:45:10.023Z,26.00
2018-03-20T02:47:37.587Z,24.73
2018-03-20T02:50:05.144Z,26.60
2018-03-20T02:52:32.713Z,27.40
2018-03-20T02:55:00.270Z,24.55
2018-03-20T02:57:28.737Z,25.35
2018-03-20T02:59:56.300Z,24.98
2018-03-20T03:02:23.876Z,26.62
2018-03-20T03:04:51.442Z,23.75
2018-03-20T03:07:19.035Z,24.83
2018-03-20T03:09:46.659Z,26.27
2018-03-20T03:12:14.958Z,25.27
2018-03-20T03:14:42.558Z,26.00
2018-03-20T03:17:10.828Z,25.75
2018-03-20T03:19:40.280Z,26.30
2018-03-20T03:22:09.225Z,26.98
2018-03-20T03:24:36.782Z,26.02
2018-03-20T03:27:04.384Z,25.52
2018-03-20T03:29:31.963Z,25.70
2018-03-20T03:32:00.312Z,27.33
2018-03-20T03:34:27.901Z,25.25
2018-03-20T03:36:55.458Z,25.40
2018-03-20T03:39:23.044Z,25.23
2018-03-20T03:41:52.631Z,27.55
2018-03-20T03:44:21.356Z,27.40
2018-03-20T03:46:48.910Z,26.75
2018-03-20T03:49:16.517Z,26.83
2018-03-20T03:51:44.868Z,27.75
2018-03-20T03:54:12.548Z,24.08
2018-03-20T03:56:40.113Z,27.13
2018-03-20T03:59:09.719Z,26.35
2018-03-20T04:01:38.061Z,27.98
2018-03-20T04:04:07.606Z,24.87
2018-03-20T04:06:40.157Z,30.12
2018-03-20T04:09:08.741Z,27.17
2018-03-20T04:11:36.356Z,26.10
2018-03-20T04:14:04.039Z,24.63
2018-03-20T04:16:31.685Z,27.85
2018-03-20T04:18:59.324Z,29.25
2018-03-20T04:21:26.873Z,29.40
2018-03-20T04:23:54.555Z,29.27
2018-03-20T04:26:23.691Z,28.00
2018-03-20T04:28:52.150Z,29.87
2018-03-20T04:31:20.375Z,30.50
2018-03-20T04:33:48.742Z,28.90
2018-03-20T04:36:17.124Z,27.40
2018-03-20T04:38:44.810Z,28.25
2018-03-20T04:41:12.410Z,29.20
2018-03-20T04:43:40.013Z,28.30
2018-03-20T04:46:08.359Z,26.02
2018-03-20T04:48:36.989Z,25.40
2018-03-20T04:51:05.667Z,28.77
2018-03-20T04:53:33.379Z,26.42
2018-03-20T04:56:01.000Z,25.27
2018-03-20T04:58:28.610Z,26.87
2018-03-20T05:00:56.245Z,25.50
2018-03-20T05:03:23.787Z,26.62
2018-03-20T05:05:51.407Z,28.20
2018-03-20T05:08:19.073Z,26.80
2018-03-20T05:10:46.750Z,27.27
2018-03-20T05:13:14.451Z,24.40
2018-03-20T05:15:42.191Z,24.65
2018-03-20T05:18:09.794Z,25.15
2018-03-20T05:23:51.078Z,24.37
2018-03-20T05:26:18.715Z,23.05
2018-03-20T05:28:46.393Z,24.25
2018-03-20T05:31:14.045Z,31.42
2018-03-20T05:33:42.213Z,22.48
2018-03-20T05:36:09.860Z,22.75
2018-03-20T05:38:38.198Z,25.10
2018-03-20T05:41:07.114Z,23.12
2018-03-20T05:43:36.256Z,23.35
2018-03-20T05:46:03.939Z,23.62
2018-03-20T05:48:37.032Z,23.62
2018-03-20T05:51:10.431Z,22.55
2018-03-20T05:53:38.878Z,23.35
2018-03-20T05:56:08.209Z,23.38
2018-03-20T05:58:36.725Z,22.10
2018-03-20T06:01:06.977Z,23.40
2018-03-20T06:03:34.879Z,23.52
2018-03-20T06:06:03.295Z,24.08
2018-03-20T06:08:31.198Z,25.55
2018-03-20T06:10:59.140Z,26.30
2018-03-20T06:13:26.693Z,28.85
2018-03-20T06:15:54.284Z,27.15
2018-03-20T06:18:21.878Z,26.15
2018-03-20T06:20:49.459Z,26.85
2018-03-20T06:23:17.156Z,24.65
2018-03-20T06:25:45.761Z,27.58
2018-03-20T06:28:13.319Z,27.23
2018-03-20T06:30:40.972Z,26.15
2018-03-20T06:33:09.766Z,27.80
2018-03-20T06:35:37.608Z,27.27
2018-03-20T06:38:06.101Z,32.70
2018-03-20T06:40:33.694Z,25.48
2018-03-20T06:43:01.248Z,25.00
2018-03-20T06:45:29.500Z,26.00
2018-03-20T06:47:57.092Z,25.60
2018-03-20T06:50:24.688Z,28.25
2018-03-20T06:52:52.327Z,23.70
2018-03-20T06:55:19.893Z,27.40
2018-03-20T06:57:48.430Z,25.05
2018-03-20T07:00:16.035Z,25.35
2018-03-20T07:02:44.611Z,25.17
2018-03-20T07:05:12.220Z,24.15
2018-03-20T07:07:40.097Z,25.33
2018-03-20T07:10:08.043Z,25.40
2018-03-20T07:12:36.818Z,24.95
2018-03-20T07:15:05.964Z,24.85
2018-03-20T07:17:33.880Z,24.55
2018-03-20T07:20:01.759Z,23.75
2018-03-20T07:22:29.484Z,25.45
2018-03-20T07:24:57.359Z,24.58
2018-03-20T07:27:28.727Z,24.67
2018-03-20T07:29:56.358Z,25.60
2018-03-20T07:32:24.431Z,21.73
2018-03-20T07:34:53.787Z,25.62
2018-03-20T07:37:21.848Z,24.80
2018-03-20T07:39:51.664Z,22.20
2018-03-20T07:42:19.557Z,22.67
2018-03-20T07:44:48.227Z,23.70
2018-03-20T07:47:16.780Z,24.75
2018-03-20T07:49:46.272Z,22.85
2018-03-20T07:52:14.663Z,23.92
2018-03-20T07:54:42.280Z,21.10
2018-03-20T07:57:10.794Z,23.40
2018-03-20T07:59:39.634Z,24.02
2018-03-20T08:02:08.289Z,23.00
2018-03-20T08:04:36.823Z,21.90
2018-03-20T08:07:05.606Z,21.20
2018-03-20T08:09:33.171Z,21.60
2018-03-20T08:12:01.571Z,21.58
2018-03-20T08:14:30.179Z,19.60
2018-03-20T08:16:58.524Z,20.85
2018-03-20T08:19:26.122Z,20.73
2018-03-20T08:21:53.817Z,19.80
2018-03-20T08:24:22.168Z,18.97
2018-03-20T08:26:49.764Z,21.13
2018-03-20T08:29:17.361Z,21.03
2018-03-20T08:31:45.713Z,21.73
2018-03-20T08:34:13.282Z,20.40
2018-03-20T08:36:41.824Z,20.90
2018-03-20T08:39:10.169Z,21.30
2018-03-20T08:41:37.783Z,19.47
2018-03-20T08:44:06.189Z,15.17
2018-03-20T08:46:35.108Z,19.40
2018-03-20T08:49:02.740Z,18.27
2018-03-20T08:51:30.366Z,15.73
2018-03-20T08:53:58.713Z,17.87
2018-03-20T08:56:26.293Z,16.60
2018-03-20T08:58:53.908Z,14.80
2018-03-20T09:01:21.845Z,16.40
2018-03-20T09:03:49.602Z,19.30
2018-03-20T09:06:17.318Z,14.33
2018-03-20T09:08:44.898Z,15.70
2018-03-20T09:11:12.466Z,15.37
2018-03-20T09:13:40.188Z,14.40
2018-03-20T09:16:09.459Z,13.90
2018-03-20T09:18:37.256Z,14.90
2018-03-20T09:21:05.160Z,13.63
2018-03-20T09:23:33.532Z,12.53
2018-03-20T09:26:01.165Z,12.87
2018-03-20T09:28:29.600Z,13.43
2018-03-20T09:30:57.256Z,12.63
2018-03-20T09:33:24.832Z,13.13
2018-03-20T09:35:52.519Z,12.40
2018-03-20T09:38:20.154Z,11.27
2018-03-20T09:40:47.828Z,12.57
2018-03-20T09:43:15.519Z,13.60
2018-03-20T09:45:43.135Z,13.80
2018-03-20T09:48:10.705Z,13.50
2018-03-20T09:50:38.376Z,14.50
2018-03-20T09:53:07.439Z,13.70
2018-03-20T09:55:35.974Z,13.73
2018-03-20T09:58:03.697Z,18.30
2018-03-20T10:00:32.195Z,13.57
2018-03-20T10:02:59.849Z,17.30
2018-03-20T10:05:27.473Z,17.10
2018-03-20T10:07:55.010Z,15.10
2018-03-20T10:10:22.563Z,12.97
2018-03-20T10:12:50.148Z,13.53
2018-03-20T10:15:17.693Z,13.37
2018-03-20T10:17:46.105Z,12.40
2018-03-20T10:20:13.771Z,14.23
2018-03-20T10:22:42.221Z,11.47
2018-03-20T10:25:10.623Z,12.90
2018-03-20T10:27:39.006Z,11.60
2018-03-20T10:30:07.415Z,12.30
2018-03-20T10:32:35.953Z,12.27
2018-03-20T10:35:03.636Z,13.17
2018-03-20T10:37:31.270Z,11.43
2018-03-20T10:39:59.666Z,12.40
2018-03-20T10:42:28.211Z,12.90
2018-03-20T10:44:56.633Z,12.40
2018-03-20T10:47:24.954Z,12.07
2018-03-20T10:49:52.522Z,12.60
2018-03-20T10:52:20.957Z,11.67
2018-03-20T10:54:48.542Z,11.17
2018-03-20T10:57:16.125Z,11.10
2018-03-20T10:59:43.860Z,12.60
2018-03-20T11:02:17.075Z,12.60
2018-03-20T11:04:45.762Z,10.43
2018-03-20T11:07:14.108Z,11.33
2018-03-20T11:09:41.665Z,11.10
2018-03-20T11:12:09.393Z,11.83
2018-03-20T11:14:37.361Z,13.00
2018-03-20T11:17:05.180Z,11.90
2018-03-20T11:19:32.780Z,10.53
2018-03-20T11:22:00.411Z,11.47
2018-03-20T11:24:29.191Z,11.23
2018-03-20T11:26:56.890Z,10.67
2018-03-20T11:29:25.509Z,9.80
2018-03-20T11:31:54.100Z,9.63
2018-03-20T11:34:22.501Z,11.57
2018-03-20T11:36:50.125Z,10.50
2018-03-20T11:39:18.453Z,11.27
2018-03-20T11:42:00.952Z,12.30
2018-03-20T11:44:28.596Z,12.33
2018-03-20T11:46:56.256Z,16.93
2018-03-20T11:49:23.893Z,11.10
2018-03-20T11:51:51.546Z,10.70
2018-03-20T11:54:19.321Z,13.13
2018-03-20T11:56:46.914Z,11.97
2018-03-20T11:59:14.726Z,10.37
2018-03-20T12:01:43.124Z,11.40
2018-03-20T12:04:10.790Z,10.33
2018-03-20T12:06:38.393Z,10.70
2018-03-20T12:09:19.343Z,9.87
2018-03-20T12:11:46.967Z,12.90
2018-03-20T12:14:14.540Z,13.07
2018-03-20T12:16:42.121Z,12.30
2018-03-20T12:19:09.920Z,9.73
2018-03-20T12:21:37.502Z,11.60
2018-03-20T12:24:06.303Z,11.40
2018-03-20T12:26:36.411Z,12.60
2018-03-20T12:29:06.374Z,12.67
2018-03-20T12:31:34.159Z,13.40
2018-03-20T12:34:01.842Z,14.03
2018-03-20T12:36:31.130Z,11.23
2018-03-20T12:38:58.706Z,11.10
2018-03-20T12:41:27.323Z,10.57
2018-03-20T12:43:55.750Z,9.80
2018-03-20T12:46:23.313Z,9.73
2018-03-20T12:48:51.903Z,11.97
2018-03-20T12:51:21.692Z,12.13
2018-03-20T12:53:50.072Z,10.50
2018-03-20T12:56:18.634Z,9.80
2018-03-20T12:58:46.193Z,8.53
2018-03-20T13:01:13.831Z,10.93
2018-03-20T13:03:41.629Z,9.50
2018-03-20T13:06:10.309Z,10.07
2018-03-20T13:08:38.728Z,9.23
2018-03-20T13:11:07.254Z,8.83
2018-03-20T13:13:36.450Z,10.00
2018-03-20T13:16:04.064Z,11.23
2018-03-20T13:18:32.430Z,11.50
2018-03-20T13:20:59.986Z,11.37
2018-03-20T13:23:27.649Z,10.47
2018-03-20T13:25:55.940Z,9.43
2018-03-20T13:28:23.506Z,8.60
2018-03-20T13:30:51.824Z,9.90
2018-03-20T13:33:19.409Z,11.57
2018-03-20T13:35:46.972Z,10.07
2018-03-20T13:38:14.509Z,10.40
2018-03-20T13:40:43.041Z,10.33
2018-03-20T13:43:11.372Z,11.20
2018-03-20T13:45:38.929Z,9.97
2018-03-20T13:48:07.517Z,10.00
2018-03-20T13:50:35.632Z,9.90
2018-03-20T13:53:04.041Z,9.50
2018-03-20T13:55:32.633Z,9.50
2018-03-20T13:58:00.954Z,9.43
2018-03-20T14:00:28.599Z,10.70
2018-03-20T14:02:56.179Z,12.47
2018-03-20T14:05:23.810Z,12.70
2018-03-20T14:07:51.394Z,15.60
2018-03-20T14:10:19.864Z,10.87
2018-03-20T14:12:49.227Z,11.80
2018-03-20T14:15:16.830Z,12.63
2018-03-20T14:17:44.395Z,15.03
2018-03-20T14:20:12.965Z,10.97
2018-03-20T14:22:40.707Z,11.73
2018-03-20T14:25:10.303Z,9.53
2018-03-20T14:27:38.118Z,11.43
2018-03-20T14:30:07.736Z,11.50
2018-03-20T14:32:35.849Z,12.57
2018-03-20T14:35:03.579Z,11.30
2018-03-20T14:37:31.936Z,11.97
2018-03-20T14:40:00.276Z,11.23
2018-03-20T14:42:28.641Z,11.67
2018-03-20T14:44:56.235Z,11.30
2018-03-20T14:47:23.794Z,12.07
2018-03-20T14:49:51.395Z,17.20
2018-03-20T14:52:19.949Z,13.67
2018-03-20T14:54:48.324Z,11.77
2018-03-20T14:57:15.893Z,11.40
2018-03-20T14:59:43.474Z,10.93
2018-03-20T15:02:11.046Z,13.07
2018-03-20T15:04:38.646Z,12.20
2018-03-20T15:07:07.863Z,14.30
2018-03-20T15:09:36.283Z,14.27
2018-03-20T15:12:05.584Z,15.03
2018-03-20T15:14:33.282Z,16.30
2018-03-20T15:17:00.822Z,14.63
2018-03-20T15:19:28.406Z,15.70
2018-03-20T15:21:56.790Z,11.93
2018-03-20T15:24:24.534Z,11.87
2018-03-20T15:26:52.124Z,12.63
2018-03-20T15:29:19.714Z,16.00
2018-03-20T15:31:47.287Z,14.10
2018-03-20T15:34:14.885Z,11.37
2018-03-20T15:36:42.485Z,13.07
2018-03-20T15:39:10.043Z,12.80
2018-03-20T15:41:38.388Z,12.60
2018-03-20T15:44:07.883Z,15.07
2018-03-20T15:46:37.309Z,13.80
2018-03-20T15:49:05.344Z,12.45
2018-03-20T15:51:32.998Z,12.53
2018-03-20T15:54:00.585Z,12.33
2018-03-20T15:56:28.176Z,13.70
2018-03-20T15:58:55.812Z,13.97
2018-03-20T16:01:23.402Z,13.73
2018-03-20T16:03:51.007Z,12.80
2018-03-20T16:06:18.720Z,14.10
2018-03-20T16:08:47.046Z,13.47
2018-03-20T16:11:14.688Z,12.47
2018-03-20T16:13:43.508Z,15.07
2018-03-20T16:16:11.283Z,12.05
2018-03-20T16:18:39.689Z,10.13
2018-03-20T16:21:08.169Z,11.40
2018-03-20T16:23:38.039Z,11.98
2018-03-20T16:26:07.440Z,12.48
2018-03-20T16:28:35.835Z,12.20
2018-03-20T16:31:03.588Z,12.98
2018-03-20T16:33:32.043Z,12.80
2018-03-20T16:35:59.638Z,11.57
2018-03-20T16:38:27.985Z,9.98
2018-03-20T16:40:57.052Z,13.52
2018-03-20T16:43:24.738Z,10.55
2018-03-20T16:45:52.501Z,11.63
2018-03-20T16:48:20.029Z,10.23
2018-03-20T16:50:47.689Z,10.52
2018-03-20T16:53:15.275Z,14.73
2018-03-20T16:55:42.845Z,12.43
2018-03-20T16:58:10.492Z,12.93
2018-03-20T17:00:38.046Z,12.67
2018-03-20T17:03:06.357Z,11.45
2018-03-20T17:05:34.073Z,12.37
2018-03-20T17:08:02.439Z,11.82
2018-03-20T17:10:30.117Z,11.20
2018-03-20T17:12:57.722Z,9.98
2018-03-20T17:15:25.345Z,9.65
2018-03-20T17:17:53.096Z,9.10
2018-03-20T17:20:22.867Z,8.20
2018-03-20T17:22:51.181Z,9.90
2018-03-20T17:25:18.750Z,9.13
2018-03-20T17:27:46.350Z,8.52
2018-03-20T17:30:13.899Z,9.00
2018-03-20T17:32:41.475Z,9.98
2018-03-20T17:35:09.845Z,10.23
2018-03-20T17:37:38.191Z,9.65
2018-03-20T17:40:07.587Z,9.05
2018-03-20T17:42:35.788Z,11.80
2018-03-20T17:45:03.550Z,10.52
2018-03-20T17:47:31.310Z,10.68
2018-03-20T17:49:58.930Z,10.23
2018-03-20T17:52:26.623Z,10.55
2018-03-20T17:54:56.548Z,9.90
2018-03-20T17:57:24.301Z,9.55
2018-03-20T17:59:51.837Z,8.55
2018-03-20T18:02:21.195Z,11.20
2018-03-20T18:04:48.805Z,10.77
2018-03-20T18:07:16.386Z,9.60
2018-03-20T18:09:43.961Z,10.60
2018-03-20T18:12:12.299Z,9.55
2018-03-20T18:14:39.890Z,9.70
2018-03-20T18:17:08.572Z,10.07
2018-03-20T18:19:37.051Z,10.43
2018-03-20T18:22:06.312Z,11.02
2018-03-20T18:24:35.848Z,11.52
2018-03-20T18:27:03.530Z,10.60
2018-03-20T18:29:31.125Z,9.30
2018-03-20T18:31:58.718Z,10.35
2018-03-20T18:34:27.901Z,10.02
2018-03-20T18:36:58.133Z,10.95
2018-03-20T18:39:25.786Z,11.95
2018-03-20T18:41:54.267Z,10.65
2018-03-20T18:44:22.016Z,13.20
2018-03-20T18:46:49.637Z,12.35
2018-03-20T18:49:18.206Z,13.57
2018-03-20T18:51:46.526Z,15.40
2018-03-20T18:54:14.175Z,11.60
2018-03-20T18:56:41.826Z,11.52
2018-03-20T18:59:09.444Z,11.12
2018-03-20T19:01:37.558Z,10.65
2018-03-20T19:04:05.866Z,11.85
2018-03-20T19:06:33.464Z,12.30
2018-03-20T19:09:01.030Z,10.50
2018-03-20T19:11:29.434Z,11.95
2018-03-20T19:13:57.072Z,11.57
2018-03-20T19:16:24.736Z,11.90
2018-03-20T19:18:52.331Z,12.20
2018-03-20T19:21:20.742Z,13.32
2018-03-20T19:23:48.405Z,13.48
2018-03-20T19:26:16.757Z,11.63
2018-03-20T19:28:44.330Z,14.13
2018-03-20T19:31:13.518Z,13.35
2018-03-20T19:33:41.075Z,15.15
2018-03-20T19:36:08.756Z,14.93
2018-03-20T19:38:37.110Z,16.12
2018-03-20T19:41:06.218Z,14.93
2018-03-20T19:43:33.823Z,16.65
2018-03-20T19:46:01.427Z,16.15
2018-03-20T19:48:29.790Z,15.18
2018-03-20T19:50:58.150Z,14.55
2018-03-20T19:53:25.765Z,16.42
2018-03-20T19:55:54.109Z,15.48
2018-03-20T19:58:21.774Z,14.38
2018-03-20T20:00:49.320Z,15.30
2018-03-20T20:03:16.881Z,16.85
2018-03-20T20:05:45.309Z,19.00
2018-03-20T20:08:13.190Z,17.45
2018-03-20T20:10:41.604Z,17.90
2018-03-20T20:13:09.260Z,20.45
2018-03-20T20:15:37.811Z,19.70
2018-03-20T20:18:06.128Z,19.25
2018-03-20T20:20:33.766Z,21.40
2018-03-20T20:23:01.445Z,21.75
2018-03-20T20:25:29.272Z,23.02
2018-03-20T20:27:57.736Z,23.05
2018-03-20T20:30:25.376Z,22.08
2018-03-20T20:32:53.153Z,22.15
2018-03-20T20:35:20.843Z,23.90
2018-03-20T20:37:49.399Z,24.00
2018-03-20T20:40:17.728Z,24.15
2018-03-20T20:42:45.423Z,26.30
2018-03-20T20:45:13.002Z,25.10
2018-03-20T20:47:41.129Z,24.92
2018-03-20T20:50:08.736Z,26.40
2018-03-20T20:52:37.591Z,25.75
2018-03-20T20:55:06.451Z,25.95
2018-03-20T20:57:34.136Z,27.15
2018-03-20T21:00:02.450Z,26.67
2018-03-20T21:02:30.031Z,26.92
2018-03-20T21:04:57.619Z,26.83
2018-03-20T21:07:25.156Z,26.83
2018-03-20T21:09:52.776Z,28.70
2018-03-20T21:12:20.400Z,27.15
2018-03-20T21:14:48.089Z,29.25
2018-03-20T21:17:16.579Z,27.67
2018-03-20T21:19:44.256Z,29.40
2018-03-20T21:22:12.850Z,28.35
2018-03-20T21:24:40.404Z,32.05
2018-03-20T21:27:08.026Z,30.25
2018-03-20T21:29:37.183Z,32.85
2018-03-20T21:32:05.630Z,33.30
2018-03-20T21:34:33.254Z,32.75
2018-03-20T21:37:00.811Z,34.28
2018-03-20T21:39:28.447Z,32.90
2018-03-20T21:41:56.014Z,32.80
2018-03-20T21:44:23.563Z,33.03
2018-03-20T21:46:52.165Z,33.35
2018-03-20T21:49:20.468Z,33.42
2018-03-20T21:51:48.075Z,34.55
2018-03-20T21:54:15.658Z,33.38
2018-03-20T21:56:43.239Z,34.35
2018-03-20T21:59:10.786Z,31.87
2018-03-20T22:01:38.385Z,35.58
2018-03-20T22:04:06.609Z,35.00
2018-03-20T22:06:34.193Z,35.47
2018-03-20T22:09:01.811Z,35.35
2018-03-20T22:11:29.430Z,34.85
2018-03-20T22:13:57.755Z,34.10
2018-03-20T22:16:25.363Z,34.95
2018-03-20T22:18:52.996Z,35.97
2018-03-20T22:21:20.650Z,35.45
2018-03-20T22:23:48.257Z,36.00
2018-03-20T22:26:16.041Z,35.10
2018-03-20T22:28:43.687Z,35.08
2018-03-20T22:31:11.258Z,36.28
2018-03-20T22:33:39.626Z,36.58
2018-03-20T22:36:07.685Z,38.28
2018-03-20T22:38:35.540Z,37.60
2018-03-20T22:41:03.112Z,36.10
2018-03-20T22:43:31.496Z,37.63
2018-03-20T22:45:59.062Z,37.15
2018-03-20T22:48:26.695Z,35.08
2018-03-20T22:50:57.104Z,37.22
2018-03-20T22:53:24.662Z,36.58
2018-03-20T22:55:52.300Z,35.97
2018-03-20T22:58:19.861Z,35.65
2018-03-20T23:00:47.416Z,35.97
2018-03-20T23:03:15.775Z,36.65
2018-03-20T23:05:44.098Z,36.10
2018-03-20T23:08:11.659Z,36.15
2018-03-20T23:10:39.300Z,37.05
2018-03-20T23:13:07.617Z,35.28
2018-03-20T23:15:35.634Z,35.20
2018-03-20T23:18:03.294Z,38.42
2018-03-20T23:20:30.847Z,36.30
2018-03-20T23:22:59.153Z,36.92
2018-03-20T23:25:26.745Z,37.58
2018-03-20T23:27:54.320Z,35.75
2018-03-20T23:30:21.890Z,36.85
2018-03-20T23:32:49.478Z,36.85
2018-03-20T23:35:17.087Z,36.55
2018-03-20T23:37:44.633Z,37.00
2018-03-20T23:40:12.993Z,37.28
2018-03-20T23:42:40.534Z,35.20
2018-03-20T23:45:08.911Z,36.00
2018-03-20T23:47:37.320Z,37.10
2018-03-20T23:50:06.631Z,35.88
2018-03-20T23:52:34.218Z,38.72
2018-03-20T23:55:01.767Z,38.15
2018-03-20T23:57:29.323Z,40.35
2018-03-20T23:59:56.911Z,39.28
